Time;durP1;ratioP1;P1;durP2;ratioP2;P2;SDS_P1;SDS_P2;PMS_P1;PMS_P2;Temp;Humidity;BMP_temperature;BMP_pressure;BME280_temperature;BME280_humidity;BME280_pressure;Samples;Min_cycle;Max_cycle;Signal;HPM_P1;HPM_P2
2022/06/07 00:08:37;;;;;;;0.20;0.10;;;21.80;99.90;;;;;;26174677;22;20179;-73
2022/06/07 00:18:41;;;;;;;0.20;0.00;;;21.80;99.90;;;;;;26145303;22;20167;-73
2022/06/07 00:28:46;;;;;;;0.20;0.00;;;21.70;99.90;;;;;;26173281;22;20206;-73
2022/06/07 00:38:50;;;;;;;0.20;0.00;;;21.70;99.90;;;;;;26173740;22;20178;-73
2022/06/07 00:48:55;;;;;;;0.20;0.00;;;21.50;99.90;;;;;;26173177;22;20247;-74
2022/06/07 00:59:03;;;;;;;0.20;0.00;;;21.50;99.90;;;;;;26173991;22;20163;-73
2022/06/07 01:19:29;;;;;;;0.20;0.00;;;21.70;99.90;;;;;;26142504;22;20254;-72
2022/06/07 01:29:34;;;;;;;0.20;0.10;;;22.10;99.90;;;;;;26171359;22;20406;-72
2022/06/07 01:50:03;;;;;;;0.20;0.07;;;22.50;99.90;;;;;;26170051;22;20203;-70
2022/06/07 02:00:07;;;;;;;0.20;0.00;;;22.10;99.90;;;;;;26169052;22;20162;-72
2022/06/07 02:10:13;;;;;;;0.20;0.00;;;21.80;99.90;;;;;;26170395;22;20209;-72
2022/06/07 02:20:17;;;;;;;0.20;0.00;;;21.30;99.90;;;;;;26141713;22;20171;-72
2022/06/07 02:30:22;;;;;;;0.20;0.10;;;21.10;99.90;;;;;;26143384;22;20213;-72
2022/06/07 02:40:26;;;;;;;0.20;0.00;;;20.90;99.90;;;;;;26141737;22;20159;-72
2022/06/07 02:50:31;;;;;;;0.20;0.10;;;20.80;99.90;;;;;;26168044;22;20206;-73
2022/06/07 03:00:35;;;;;;;0.20;0.10;;;20.60;99.90;;;;;;26139092;22;20172;-72
2022/06/07 03:10:40;;;;;;;0.20;0.10;;;20.60;99.90;;;;;;26176033;22;20179;-72
2022/06/07 03:20:46;;;;;;;0.20;0.10;;;20.40;99.90;;;;;;26149772;22;20168;-72
2022/06/07 03:30:51;;;;;;;0.20;0.10;;;20.60;99.90;;;;;;26147370;22;20218;-71
2022/06/07 03:40:56;;;;;;;0.20;0.00;;;20.60;99.90;;;;;;26175883;22;20163;-72
2022/06/07 03:51:01;;;;;;;0.20;0.10;;;20.70;99.90;;;;;;26145942;22;20195;-72
2022/06/07 04:01:06;;;;;;;0.20;0.00;;;20.70;99.90;;;;;;26142591;22;20160;-73
2022/06/07 04:11:20;;;;;;;0.20;0.10;;;20.90;99.90;;;;;;26143472;22;20186;-72
2022/06/07 04:21:25;;;;;;;0.20;0.00;;;20.90;99.90;;;;;;26169695;22;20162;-71
2022/06/07 04:31:30;;;;;;;0.20;0.00;;;21.10;99.90;;;;;;26171428;22;20203;-74
2022/06/07 04:41:35;;;;;;;0.20;0.00;;;21.20;99.90;;;;;;26171685;22;20190;-72
2022/06/07 04:51:40;;;;;;;0.20;0.00;;;21.10;99.90;;;;;;26145297;22;20195;-72
2022/06/07 05:01:45;;;;;;;0.20;0.10;;;20.90;99.90;;;;;;26144386;22;20167;-72
2022/06/07 05:11:51;;;;;;;0.20;0.00;;;21.10;99.90;;;;;;26145067;22;20194;-71
2022/06/07 05:21:55;;;;;;;0.20;0.10;;;21.30;99.90;;;;;;26168633;22;20167;-72
2022/06/07 05:32:00;;;;;;;0.20;0.00;;;21.60;99.90;;;;;;26168085;22;20229;-73
2022/06/07 05:42:04;;;;;;;0.20;0.00;;;21.90;99.90;;;;;;26166295;22;20175;-75
2022/06/07 05:52:10;;;;;;;0.20;0.00;;;22.40;99.90;;;;;;26165575;22;20191;-71
2022/06/07 06:02:15;;;;;;;0.20;0.00;;;22.70;99.90;;;;;;26160961;22;20180;-73
2022/06/07 06:12:21;;;;;;;0.20;0.00;;;23.00;99.90;;;;;;26130853;22;20175;-71
2022/06/07 06:22:26;;;;;;;0.20;0.00;;;23.20;99.90;;;;;;26160437;22;20152;-72
2022/06/07 06:32:31;;;;;;;0.20;0.00;;;23.30;99.90;;;;;;26164222;22;20202;-79
2022/06/07 06:42:35;;;;;;;0.20;0.00;;;23.30;99.90;;;;;;26132826;22;20190;-72
2022/06/07 06:52:41;;;;;;;0.20;0.00;;;23.40;99.90;;;;;;26163433;22;20213;-71
2022/06/07 07:02:45;;;;;;;0.20;0.00;;;23.60;99.90;;;;;;26136788;22;20160;-71
2022/06/07 07:12:50;;;;;;;0.20;0.00;;;23.60;99.90;;;;;;26160447;22;20163;-69
2022/06/07 07:23:00;;;;;;;0.20;0.00;;;23.70;99.90;;;;;;26164585;22;20191;-74
2022/06/07 07:33:05;;;;;;;0.20;0.00;;;23.90;99.90;;;;;;26161626;22;20258;-71
2022/06/07 07:43:09;;;;;;;0.20;0.00;;;23.80;99.90;;;;;;26136458;22;20190;-73
2022/06/07 07:53:15;;;;;;;0.20;0.00;;;23.80;99.90;;;;;;26141838;22;20179;-72
2022/06/07 08:03:21;;;;;;;0.20;0.00;;;23.70;99.90;;;;;;26170208;22;20184;-77
2022/06/07 08:13:42;;;;;;;0.20;0.00;;;23.60;99.90;;;;;;26141457;22;20526;-74
2022/06/07 08:23:46;;;;;;;0.20;0.00;;;23.60;99.90;;;;;;26169325;22;20255;-72
2022/06/07 08:44:20;;;;;;;0.20;0.00;;;24.00;99.90;;;;;;26134077;22;20209;-72
2022/06/07 08:54:30;;;;;;;0.20;0.00;;;23.80;99.90;;;;;;26156502;22;20183;-71
2022/06/07 09:04:37;;;;;;;0.20;0.00;;;24.30;99.90;;;;;;26132459;22;20194;-72
2022/06/07 09:14:46;;;;;;;0.20;0.00;;;24.20;99.90;;;;;;26137076;22;20174;-73
2022/06/07 09:24:56;;;;;;;0.20;0.00;;;24.20;99.90;;;;;;26134247;22;20218;-74
2022/06/07 09:35:08;;;;;;;0.20;0.00;;;24.40;99.90;;;;;;26155388;22;20167;-74
2022/06/07 09:45:23;;;;;;;0.20;0.00;;;24.40;99.90;;;;;;26156257;22;20218;-72
2022/06/07 09:55:34;;;;;;;0.20;0.10;;;25.00;99.90;;;;;;26157177;22;20190;-74
2022/06/07 10:05:43;;;;;;;0.20;0.00;;;24.90;99.90;;;;;;26155935;22;20187;-74
2022/06/07 10:15:53;;;;;;;0.20;0.00;;;25.50;99.90;;;;;;26129307;22;20167;-74
2022/06/07 10:26:16;;;;;;;0.20;0.00;;;25.30;99.90;;;;;;26154615;22;20282;-75
2022/06/07 10:36:38;;;;;;;0.20;0.10;;;25.40;99.90;;;;;;26104382;22;20175;-76
2022/06/07 10:46:44;;;;;;;0.20;0.00;;;25.60;99.90;;;;;;26161339;22;20183;-74
2022/06/07 10:56:59;;;;;;;0.20;0.10;;;25.50;99.90;;;;;;26163111;22;20183;-75
2022/06/07 11:17:32;;;;;;;0.20;0.00;;;26.90;99.90;;;;;;26129219;22;20175;-75
2022/06/07 11:27:35;;;;;;;0.20;0.00;;;27.30;99.90;;;;;;26134782;22;20199;-74
2022/06/07 11:37:42;;;;;;;0.20;0.00;;;28.60;99.90;;;;;;26172027;22;20180;-74
2022/06/07 11:48:13;;;;;;;0.20;0.00;;;28.70;99.90;;;;;;26169772;22;20186;-75
2022/06/07 11:58:38;;;;;;;0.20;0.00;;;29.10;99.90;;;;;;26146369;22;20187;-74
2022/06/07 12:08:51;;;;;;;0.20;0.00;;;29.70;99.90;;;;;;26171948;22;20187;-73
2022/06/07 12:18:58;;;;;;;0.20;0.10;;;30.90;99.90;;;;;;26145207;22;20163;-70
2022/06/07 12:29:13;;;;;;;0.20;0.00;;;30.00;99.90;;;;;;26168990;22;20206;-73
2022/06/07 12:39:19;;;;;;;0.20;0.00;;;30.40;99.90;;;;;;26164581;22;20167;-73
2022/06/07 12:49:25;;;;;;;0.20;0.00;;;31.60;99.90;;;;;;26169605;22;20207;-71
2022/06/07 12:59:36;;;;;;;0.20;0.00;;;31.60;99.90;;;;;;26168410;22;20170;-73
2022/06/07 13:09:40;;;;;;;0.20;0.00;;;31.30;99.90;;;;;;26137914;22;20183;-70
2022/06/07 13:19:46;;;;;;;0.20;0.00;;;32.10;99.90;;;;;;26128728;22;20159;-72
2022/06/07 13:29:50;;;;;;;0.20;0.00;;;32.50;99.90;;;;;;26129405;22;20203;-72
2022/06/07 13:40:04;;;;;;;0.20;0.00;;;32.10;99.90;;;;;;26157752;22;20172;-71
2022/06/07 14:00:46;;;;;;;0.20;0.00;;;32.40;99.90;;;;;;26160626;22;20166;-72
2022/06/07 14:10:50;;;;;;;0.20;0.00;;;32.10;99.90;;;;;;26167885;22;20194;-71
2022/06/07 14:20:55;;;;;;;0.20;0.00;;;31.60;99.90;;;;;;26140252;22;20163;-72
2022/06/07 14:31:00;;;;;;;0.20;0.00;;;31.80;99.90;;;;;;26140571;22;20214;-72
2022/06/07 14:41:06;;;;;;;0.20;0.00;;;32.20;99.90;;;;;;26164313;22;20164;-72
2022/06/07 14:51:19;;;;;;;0.20;0.00;;;33.50;99.90;;;;;;26137885;22;20205;-71
2022/06/07 15:01:32;;;;;;;0.20;0.00;;;34.20;99.90;;;;;;26168484;22;20170;-73
2022/06/07 15:11:37;;;;;;;0.20;0.00;;;31.90;99.90;;;;;;26173273;22;20187;-73
2022/06/07 15:21:44;;;;;;;0.20;0.00;;;33.10;99.90;;;;;;26174262;22;20163;-70
2022/06/07 15:31:47;;;;;;;0.20;0.00;;;32.60;99.90;;;;;;26162337;22;20195;-71
2022/06/07 15:52:14;;;;;;;0.20;0.00;;;31.90;99.90;;;;;;26160944;22;20383;-72
2022/06/07 16:02:19;;;;;;;0.20;0.00;;;31.40;99.90;;;;;;26129892;22;20163;-71
2022/06/07 16:12:23;;;;;;;0.20;0.00;;;32.40;99.90;;;;;;26158249;22;20202;-71
2022/06/07 16:22:28;;;;;;;0.20;0.00;;;31.90;99.90;;;;;;26159986;22;20192;-71
2022/06/07 16:42:54;;;;;;;0.20;0.00;;;30.00;99.90;;;;;;26160861;22;20170;-72
2022/06/07 16:52:58;;;;;;;0.20;0.00;;;28.30;99.90;;;;;;26166163;22;20206;-73
2022/06/07 17:03:04;;;;;;;0.20;0.00;;;27.90;99.90;;;;;;26158752;22;20209;-71
2022/06/07 17:13:09;;;;;;;0.20;0.00;;;27.90;99.90;;;;;;26164290;22;20187;-71
2022/06/07 17:23:16;;;;;;;0.20;0.05;;;28.30;99.90;;;;;;26139349;22;20174;-70
2022/06/07 17:33:20;;;;;;;0.20;0.00;;;28.40;99.90;;;;;;26164919;22;20203;-72
2022/06/07 17:43:26;;;;;;;0.20;0.00;;;29.30;99.90;;;;;;26165163;22;20193;-72
2022/06/07 17:53:31;;;;;;;0.20;0.00;;;29.50;99.90;;;;;;26165198;22;20199;-71
2022/06/07 18:03:36;;;;;;;0.20;0.00;;;29.40;99.90;;;;;;26166071;22;20178;-71
2022/06/07 18:13:40;;;;;;;0.20;0.00;;;29.00;99.90;;;;;;26132890;22;20179;-74
2022/06/07 18:23:46;;;;;;;0.20;0.00;;;27.60;99.90;;;;;;26133237;22;20195;-73
2022/06/07 18:33:51;;;;;;;0.20;0.00;;;27.00;99.90;;;;;;26131215;22;20191;-71
2022/06/07 18:43:56;;;;;;;0.20;0.00;;;25.70;99.90;;;;;;26162353;22;20182;-72
2022/06/07 18:54:02;;;;;;;0.20;0.00;;;24.80;99.90;;;;;;26138079;22;20204;-76
2022/06/07 19:04:07;;;;;;;0.20;0.00;;;25.10;99.90;;;;;;26164005;22;20929;-74
2022/06/07 19:14:10;;;;;;;0.20;0.00;;;24.50;99.90;;;;;;26162651;22;20202;-72
2022/06/07 19:24:16;;;;;;;0.20;0.00;;;24.10;99.90;;;;;;26137947;22;20192;-72
2022/06/07 19:34:20;;;;;;;0.20;0.00;;;23.80;99.90;;;;;;26133103;22;20194;-75
2022/06/07 19:44:25;;;;;;;0.20;0.10;;;23.80;99.90;;;;;;26134311;22;20178;-73
2022/06/07 19:54:31;;;;;;;0.20;0.00;;;23.70;99.90;;;;;;26169954;22;20210;-74
2022/06/07 20:04:37;;;;;;;0.20;0.00;;;23.60;99.90;;;;;;26144146;22;20168;-73
2022/06/07 20:14:41;;;;;;;0.20;0.00;;;23.60;99.90;;;;;;26146154;22;20398;-71
2022/06/07 20:24:46;;;;;;;0.20;0.00;;;23.60;99.90;;;;;;26142057;22;20202;-70
2022/06/07 20:34:51;;;;;;;0.20;0.00;;;23.40;99.90;;;;;;26169802;22;20214;-70
2022/06/07 20:44:57;;;;;;;0.20;0.00;;;23.40;99.90;;;;;;26173633;22;20170;-71
2022/06/07 20:55:01;;;;;;;0.20;0.10;;;23.40;99.90;;;;;;26145460;22;20191;-70
2022/06/07 21:05:07;;;;;;;0.20;0.00;;;23.20;99.90;;;;;;26170220;22;20174;-70
2022/06/07 21:15:13;;;;;;;0.20;0.00;;;22.60;99.90;;;;;;26146354;22;20163;-71
2022/06/07 21:25:19;;;;;;;0.20;0.00;;;22.40;99.90;;;;;;26172136;22;20199;-70
2022/06/07 21:35:23;;;;;;;0.20;0.00;;;22.20;99.90;;;;;;26170017;22;20164;-72
2022/06/07 21:45:28;;;;;;;0.20;0.00;;;21.90;99.90;;;;;;26169298;22;20180;-71
2022/06/07 21:55:33;;;;;;;0.20;0.00;;;21.70;99.90;;;;;;26158976;22;20187;-71
2022/06/07 22:05:42;;;;;;;0.20;0.00;;;21.70;99.90;;;;;;26160166;22;20187;-71
2022/06/07 22:15:47;;;;;;;0.20;0.00;;;21.60;99.90;;;;;;26133008;22;20163;-72
2022/06/07 22:25:53;;;;;;;0.20;0.00;;;21.20;99.90;;;;;;26130865;22;20203;-71
2022/06/07 22:35:57;;;;;;;0.20;0.10;;;21.10;99.90;;;;;;26158922;22;20167;-71
2022/06/07 22:46:02;;;;;;;0.20;0.10;;;21.10;99.90;;;;;;26166705;22;20186;-70
2022/06/07 22:56:07;;;;;;;0.20;0.00;;;21.20;99.90;;;;;;26160834;22;20187;-71
2022/06/07 23:06:22;;;;;;;0.20;0.10;;;21.10;99.90;;;;;;26156983;22;20183;-70
2022/06/07 23:26:49;;;;;;;0.20;0.00;;;20.90;99.90;;;;;;26176027;22;20276;-71
2022/06/07 23:36:52;;;;;;;0.20;0.03;;;20.90;99.90;;;;;;26150558;22;20383;-70
2022/06/07 23:47:03;;;;;;;0.20;0.00;;;20.90;99.90;;;;;;26148001;22;20194;-71
2022/06/07 23:57:08;;;;;;;0.20;0.00;;;20.70;99.90;;;;;;26177488;22;20191;-71
